Terminal Aerodrome Forecast
Issued by NWS

Current Version | Previous Version | Graphics & Text | Print | Product List | Glossary On
Versions: 1 2 3 4 5 6 7 8 9 10 11 12 13 14 15 16 17 18 19 20 21
451
FTUS41 KILN 092057 AAA
TAFLUK
TAF AMD
KLUK 092057Z 0921/1018 26010KT 3SM -SHSN BKN028 OVC040
      TEMPO 0921/0923 1SM -SHSN
     FM100000 28010KT P6SM VCSH SCT018 OVC028
     FM100600 28010KT 4SM -SHSN BKN018 OVC028
     FM101500 28012G20KT P6SM -SHSN SCT018 OVC028=

USA.gov is the U.S. government's official web portal to all federal, state and local government web resources and services.